sensor_id;sensor_type;location;lat;lon;timestamp;P1;durP1;ratioP1;P2;durP2;ratioP2
5483;SDS011;2764;48.794;8.326;2023-04-24T00:00:25;7.20;;;0.90;;
5483;SDS011;2764;48.794;8.326;2023-04-24T00:01:27;10.57;;;0.90;;
5483;SDS011;2764;48.794;8.326;2023-04-24T00:02:32;7.33;;;1.37;;
5483;SDS011;2764;48.794;8.326;2023-04-24T00:03:34;1.10;;;0.70;;
5483;SDS011;2764;48.794;8.326;2023-04-24T00:04:40;1.27;;;0.70;;
5483;SDS011;2764;48.794;8.326;2023-04-24T00:05:42;1.40;;;1.00;;
5483;SDS011;2764;48.794;8.326;2023-04-24T00:06:44;0.73;;;0.73;;
5483;SDS011;2764;48.794;8.326;2023-04-24T00:07:50;1.13;;;0.90;;
5483;SDS011;2764;48.794;8.326;2023-04-24T00:08:54;1.30;;;0.70;;
5483;SDS011;2764;48.794;8.326;2023-04-24T00:09:56;1.27;;;0.83;;
5483;SDS011;2764;48.794;8.326;2023-04-24T00:10:58;1.90;;;1.33;;
5483;SDS011;2764;48.794;8.326;2023-04-24T00:12:00;4.20;;;0.80;;
5483;SDS011;2764;48.794;8.326;2023-04-24T00:13:04;2.30;;;0.90;;
5483;SDS011;2764;48.794;8.326;2023-04-24T00:14:05;1.00;;;0.90;;
5483;SDS011;2764;48.794;8.326;2023-04-24T00:15:07;1.27;;;0.70;;
5483;SDS011;2764;48.794;8.326;2023-04-24T00:16:09;1.63;;;0.97;;
5483;SDS011;2764;48.794;8.326;2023-04-24T00:17:12;3.13;;;0.83;;
5483;SDS011;2764;48.794;8.326;2023-04-24T00:18:13;1.13;;;0.60;;
5483;SDS011;2764;48.794;8.326;2023-04-24T00:19:18;4.43;;;0.80;;
5483;SDS011;2764;48.794;8.326;2023-04-24T00:20:22;1.67;;;0.73;;
5483;SDS011;2764;48.794;8.326;2023-04-24T00:21:24;4.13;;;1.00;;
5483;SDS011;2764;48.794;8.326;2023-04-24T00:22:27;1.27;;;0.83;;
5483;SDS011;2764;48.794;8.326;2023-04-24T00:23:29;1.90;;;0.97;;
5483;SDS011;2764;48.794;8.326;2023-04-24T00:24:32;7.00;;;0.90;;
5483;SDS011;2764;48.794;8.326;2023-04-24T00:25:34;1.70;;;1.40;;
5483;SDS011;2764;48.794;8.326;2023-04-24T00:26:36;1.57;;;0.60;;
5483;SDS011;2764;48.794;8.326;2023-04-24T00:27:38;5.17;;;1.10;;
5483;SDS011;2764;48.794;8.326;2023-04-24T00:28:40;1.20;;;0.60;;
5483;SDS011;2764;48.794;8.326;2023-04-24T00:29:41;0.90;;;0.73;;
5483;SDS011;2764;48.794;8.326;2023-04-24T00:30:44;3.10;;;1.10;;
5483;SDS011;2764;48.794;8.326;2023-04-24T00:31:46;1.77;;;0.70;;
5483;SDS011;2764;48.794;8.326;2023-04-24T00:32:48;1.27;;;0.77;;
5483;SDS011;2764;48.794;8.326;2023-04-24T00:33:50;1.40;;;0.83;;
5483;SDS011;2764;48.794;8.326;2023-04-24T00:34:52;2.07;;;0.90;;
5483;SDS011;2764;48.794;8.326;2023-04-24T00:35:54;4.40;;;0.70;;
5483;SDS011;2764;48.794;8.326;2023-04-24T00:36:56;0.60;;;0.60;;
5483;SDS011;2764;48.794;8.326;2023-04-24T00:37:58;3.47;;;0.67;;
5483;SDS011;2764;48.794;8.326;2023-04-24T00:39:00;1.13;;;0.70;;
5483;SDS011;2764;48.794;8.326;2023-04-24T00:40:01;3.60;;;0.97;;
5483;SDS011;2764;48.794;8.326;2023-04-24T00:41:06;2.30;;;0.90;;
5483;SDS011;2764;48.794;8.326;2023-04-24T00:42:08;1.50;;;0.90;;
5483;SDS011;2764;48.794;8.326;2023-04-24T00:43:10;0.80;;;0.70;;
5483;SDS011;2764;48.794;8.326;2023-04-24T00:44:12;1.03;;;0.80;;
5483;SDS011;2764;48.794;8.326;2023-04-24T00:45:16;2.20;;;0.83;;
5483;SDS011;2764;48.794;8.326;2023-04-24T00:46:18;2.37;;;0.80;;
5483;SDS011;2764;48.794;8.326;2023-04-24T00:47:21;2.40;;;0.70;;
5483;SDS011;2764;48.794;8.326;2023-04-24T00:48:24;3.23;;;0.83;;
5483;SDS011;2764;48.794;8.326;2023-04-24T00:49:26;1.77;;;0.60;;
5483;SDS011;2764;48.794;8.326;2023-04-24T00:50:28;4.13;;;1.13;;
5483;SDS011;2764;48.794;8.326;2023-04-24T00:51:32;1.27;;;0.73;;
5483;SDS011;2764;48.794;8.326;2023-04-24T00:52:34;2.73;;;0.70;;
5483;SDS011;2764;48.794;8.326;2023-04-24T00:53:36;3.80;;;0.80;;
5483;SDS011;2764;48.794;8.326;2023-04-24T00:54:37;1.27;;;0.73;;
5483;SDS011;2764;48.794;8.326;2023-04-24T00:55:39;0.90;;;0.57;;
5483;SDS011;2764;48.794;8.326;2023-04-24T00:56:43;1.80;;;0.70;;
5483;SDS011;2764;48.794;8.326;2023-04-24T00:57:47;2.53;;;0.83;;
5483;SDS011;2764;48.794;8.326;2023-04-24T00:58:50;2.77;;;1.00;;
5483;SDS011;2764;48.794;8.326;2023-04-24T00:59:52;2.10;;;0.87;;
5483;SDS011;2764;48.794;8.326;2023-04-24T01:00:56;2.30;;;0.77;;
5483;SDS011;2764;48.794;8.326;2023-04-24T01:01:58;2.07;;;0.70;;
5483;SDS011;2764;48.794;8.326;2023-04-24T01:03:02;2.13;;;1.20;;
5483;SDS011;2764;48.794;8.326;2023-04-24T01:04:06;6.20;;;1.07;;
5483;SDS011;2764;48.794;8.326;2023-04-24T01:05:09;2.07;;;0.87;;
5483;SDS011;2764;48.794;8.326;2023-04-24T01:06:12;1.00;;;0.80;;
5483;SDS011;2764;48.794;8.326;2023-04-24T01:07:15;1.50;;;0.70;;
5483;SDS011;2764;48.794;8.326;2023-04-24T01:08:17;1.30;;;0.70;;
5483;SDS011;2764;48.794;8.326;2023-04-24T01:09:20;1.83;;;0.97;;
5483;SDS011;2764;48.794;8.326;2023-04-24T01:10:23;4.00;;;0.90;;
5483;SDS011;2764;48.794;8.326;2023-04-24T01:11:25;2.60;;;0.90;;
5483;SDS011;2764;48.794;8.326;2023-04-24T01:12:27;2.90;;;0.90;;
5483;SDS011;2764;48.794;8.326;2023-04-24T01:13:29;5.53;;;0.70;;
5483;SDS011;2764;48.794;8.326;2023-04-24T01:14:33;2.70;;;0.70;;
5483;SDS011;2764;48.794;8.326;2023-04-24T01:15:36;3.93;;;1.10;;
5483;SDS011;2764;48.794;8.326;2023-04-24T01:16:38;3.00;;;0.90;;
5483;SDS011;2764;48.794;8.326;2023-04-24T01:17:39;5.73;;;0.70;;
5483;SDS011;2764;48.794;8.326;2023-04-24T01:18:41;1.20;;;0.70;;
5483;SDS011;2764;48.794;8.326;2023-04-24T01:19:43;5.33;;;0.93;;
5483;SDS011;2764;48.794;8.326;2023-04-24T01:20:47;2.70;;;0.93;;
5483;SDS011;2764;48.794;8.326;2023-04-24T01:21:52;3.93;;;0.63;;
5483;SDS011;2764;48.794;8.326;2023-04-24T01:22:55;2.23;;;0.90;;
5483;SDS011;2764;48.794;8.326;2023-04-24T01:23:58;1.30;;;0.70;;
5483;SDS011;2764;48.794;8.326;2023-04-24T01:25:00;1.23;;;0.63;;
5483;SDS011;2764;48.794;8.326;2023-04-24T01:26:02;2.33;;;1.00;;
5483;SDS011;2764;48.794;8.326;2023-04-24T01:27:04;2.93;;;1.00;;
5483;SDS011;2764;48.794;8.326;2023-04-24T01:28:06;4.87;;;1.03;;
5483;SDS011;2764;48.794;8.326;2023-04-24T01:29:08;9.13;;;0.90;;
5483;SDS011;2764;48.794;8.326;2023-04-24T01:30:14;1.83;;;0.80;;
5483;SDS011;2764;48.794;8.326;2023-04-24T01:31:17;3.00;;;1.10;;
5483;SDS011;2764;48.794;8.326;2023-04-24T01:32:19;3.13;;;1.07;;
5483;SDS011;2764;48.794;8.326;2023-04-24T01:33:21;1.47;;;0.93;;
5483;SDS011;2764;48.794;8.326;2023-04-24T01:34:24;10.20;;;0.80;;
5483;SDS011;2764;48.794;8.326;2023-04-24T01:35:26;1.33;;;0.50;;
5483;SDS011;2764;48.794;8.326;2023-04-24T01:36:28;1.53;;;0.90;;
5483;SDS011;2764;48.794;8.326;2023-04-24T01:37:30;1.20;;;0.70;;
5483;SDS011;2764;48.794;8.326;2023-04-24T01:38:34;1.40;;;0.83;;
5483;SDS011;2764;48.794;8.326;2023-04-24T01:39:36;3.50;;;1.10;;
5483;SDS011;2764;48.794;8.326;2023-04-24T01:40:38;0.60;;;0.57;;
5483;SDS011;2764;48.794;8.326;2023-04-24T01:41:40;2.50;;;1.00;;
5483;SDS011;2764;48.794;8.326;2023-04-24T01:42:42;2.03;;;0.90;;
5483;SDS011;2764;48.794;8.326;2023-04-24T01:43:44;2.17;;;0.60;;
5483;SDS011;2764;48.794;8.326;2023-04-24T01:44:46;2.60;;;1.10;;
5483;SDS011;2764;48.794;8.326;2023-04-24T01:45:48;1.57;;;0.90;;
5483;SDS011;2764;48.794;8.326;2023-04-24T01:46:50;4.87;;;0.87;;
5483;SDS011;2764;48.794;8.326;2023-04-24T01:47:53;1.97;;;0.83;;
5483;SDS011;2764;48.794;8.326;2023-04-24T01:48:55;5.93;;;1.37;;
5483;SDS011;2764;48.794;8.326;2023-04-24T01:49:58;3.87;;;0.80;;
5483;SDS011;2764;48.794;8.326;2023-04-24T01:51:01;0.83;;;0.70;;
5483;SDS011;2764;48.794;8.326;2023-04-24T01:52:03;4.63;;;0.80;;
5483;SDS011;2764;48.794;8.326;2023-04-24T01:53:06;2.20;;;0.87;;
5483;SDS011;2764;48.794;8.326;2023-04-24T01:54:08;1.40;;;0.53;;
5483;SDS011;2764;48.794;8.326;2023-04-24T01:55:11;1.07;;;0.80;;
5483;SDS011;2764;48.794;8.326;2023-04-24T01:56:13;6.90;;;0.87;;
5483;SDS011;2764;48.794;8.326;2023-04-24T01:57:15;3.53;;;0.93;;
5483;SDS011;2764;48.794;8.326;2023-04-24T01:58:20;3.40;;;0.90;;
5483;SDS011;2764;48.794;8.326;2023-04-24T01:59:22;1.77;;;0.67;;
5483;SDS011;2764;48.794;8.326;2023-04-24T02:00:25;0.70;;;0.60;;
5483;SDS011;2764;48.794;8.326;2023-04-24T02:01:26;1.57;;;0.70;;
5483;SDS011;2764;48.794;8.326;2023-04-24T02:02:28;2.53;;;0.77;;
5483;SDS011;2764;48.794;8.326;2023-04-24T02:03:31;0.90;;;0.77;;
5483;SDS011;2764;48.794;8.326;2023-04-24T02:04:33;0.60;;;0.60;;
5483;SDS011;2764;48.794;8.326;2023-04-24T02:05:35;1.23;;;0.77;;
5483;SDS011;2764;48.794;8.326;2023-04-24T02:06:36;7.93;;;0.80;;
5483;SDS011;2764;48.794;8.326;2023-04-24T02:07:41;1.43;;;0.80;;
5483;SDS011;2764;48.794;8.326;2023-04-24T02:08:43;3.83;;;1.00;;
5483;SDS011;2764;48.794;8.326;2023-04-24T02:09:44;1.63;;;1.00;;
5483;SDS011;2764;48.794;8.326;2023-04-24T02:10:46;4.60;;;0.97;;
5483;SDS011;2764;48.794;8.326;2023-04-24T02:11:48;0.83;;;0.80;;
5483;SDS011;2764;48.794;8.326;2023-04-24T02:12:50;2.50;;;0.87;;
5483;SDS011;2764;48.794;8.326;2023-04-24T02:13:52;1.10;;;0.77;;
5483;SDS011;2764;48.794;8.326;2023-04-24T02:14:55;2.73;;;0.90;;
5483;SDS011;2764;48.794;8.326;2023-04-24T02:15:58;1.17;;;0.60;;
5483;SDS011;2764;48.794;8.326;2023-04-24T02:17:00;1.47;;;0.80;;
5483;SDS011;2764;48.794;8.326;2023-04-24T02:18:02;1.63;;;0.90;;
5483;SDS011;2764;48.794;8.326;2023-04-24T02:19:04;1.80;;;0.90;;
5483;SDS011;2764;48.794;8.326;2023-04-24T02:20:06;4.53;;;1.00;;
5483;SDS011;2764;48.794;8.326;2023-04-24T02:21:09;1.67;;;1.03;;
5483;SDS011;2764;48.794;8.326;2023-04-24T02:22:11;3.93;;;1.07;;
5483;SDS011;2764;48.794;8.326;2023-04-24T02:23:13;1.27;;;0.80;;
5483;SDS011;2764;48.794;8.326;2023-04-24T02:24:16;3.30;;;1.07;;
5483;SDS011;2764;48.794;8.326;2023-04-24T02:25:18;3.77;;;1.20;;
5483;SDS011;2764;48.794;8.326;2023-04-24T02:26:20;0.53;;;0.53;;
5483;SDS011;2764;48.794;8.326;2023-04-24T02:27:22;1.17;;;0.70;;
5483;SDS011;2764;48.794;8.326;2023-04-24T02:28:23;6.43;;;1.23;;
5483;SDS011;2764;48.794;8.326;2023-04-24T02:29:25;2.50;;;0.83;;
5483;SDS011;2764;48.794;8.326;2023-04-24T02:30:29;4.10;;;0.83;;
5483;SDS011;2764;48.794;8.326;2023-04-24T02:31:30;3.00;;;1.00;;
5483;SDS011;2764;48.794;8.326;2023-04-24T02:32:33;1.20;;;0.97;;
5483;SDS011;2764;48.794;8.326;2023-04-24T02:33:35;2.30;;;0.80;;
5483;SDS011;2764;48.794;8.326;2023-04-24T02:34:37;3.83;;;0.87;;
5483;SDS011;2764;48.794;8.326;2023-04-24T02:35:39;2.17;;;0.83;;
5483;SDS011;2764;48.794;8.326;2023-04-24T02:36:40;3.60;;;1.53;;
5483;SDS011;2764;48.794;8.326;2023-04-24T02:37:42;1.00;;;0.60;;
5483;SDS011;2764;48.794;8.326;2023-04-24T02:38:44;1.73;;;0.90;;
5483;SDS011;2764;48.794;8.326;2023-04-24T02:39:48;3.73;;;1.13;;
5483;SDS011;2764;48.794;8.326;2023-04-24T02:40:49;1.73;;;0.70;;
5483;SDS011;2764;48.794;8.326;2023-04-24T02:41:51;4.60;;;0.80;;
5483;SDS011;2764;48.794;8.326;2023-04-24T02:42:56;1.80;;;0.63;;
5483;SDS011;2764;48.794;8.326;2023-04-24T02:43:58;3.93;;;0.87;;
5483;SDS011;2764;48.794;8.326;2023-04-24T02:44:59;1.73;;;0.80;;
5483;SDS011;2764;48.794;8.326;2023-04-24T02:46:02;2.20;;;0.93;;
5483;SDS011;2764;48.794;8.326;2023-04-24T02:47:04;3.43;;;0.90;;
5483;SDS011;2764;48.794;8.326;2023-04-24T02:48:05;0.60;;;0.60;;
5483;SDS011;2764;48.794;8.326;2023-04-24T02:49:08;0.90;;;0.70;;
5483;SDS011;2764;48.794;8.326;2023-04-24T02:50:10;4.70;;;0.93;;
5483;SDS011;2764;48.794;8.326;2023-04-24T02:51:14;1.50;;;0.77;;
5483;SDS011;2764;48.794;8.326;2023-04-24T02:52:16;2.40;;;1.17;;
5483;SDS011;2764;48.794;8.326;2023-04-24T02:53:20;2.43;;;0.70;;
5483;SDS011;2764;48.794;8.326;2023-04-24T02:54:21;2.40;;;0.70;;
5483;SDS011;2764;48.794;8.326;2023-04-24T02:55:23;1.30;;;0.70;;
5483;SDS011;2764;48.794;8.326;2023-04-24T02:56:25;1.33;;;0.70;;
5483;SDS011;2764;48.794;8.326;2023-04-24T02:57:27;3.63;;;1.13;;
5483;SDS011;2764;48.794;8.326;2023-04-24T02:58:29;2.80;;;1.00;;
5483;SDS011;2764;48.794;8.326;2023-04-24T02:59:31;0.93;;;0.70;;
5483;SDS011;2764;48.794;8.326;2023-04-24T03:00:33;1.27;;;1.00;;
5483;SDS011;2764;48.794;8.326;2023-04-24T03:01:35;2.30;;;0.60;;
5483;SDS011;2764;48.794;8.326;2023-04-24T03:02:37;1.33;;;0.80;;
5483;SDS011;2764;48.794;8.326;2023-04-24T03:03:40;1.47;;;0.80;;
5483;SDS011;2764;48.794;8.326;2023-04-24T03:04:41;1.73;;;0.83;;
5483;SDS011;2764;48.794;8.326;2023-04-24T03:05:45;2.10;;;0.77;;
5483;SDS011;2764;48.794;8.326;2023-04-24T03:06:47;2.13;;;0.77;;
5483;SDS011;2764;48.794;8.326;2023-04-24T03:07:50;1.10;;;1.00;;
5483;SDS011;2764;48.794;8.326;2023-04-24T03:08:54;9.03;;;0.83;;
5483;SDS011;2764;48.794;8.326;2023-04-24T03:09:56;2.60;;;1.17;;
5483;SDS011;2764;48.794;8.326;2023-04-24T03:10:59;3.50;;;1.10;;
5483;SDS011;2764;48.794;8.326;2023-04-24T03:12:01;1.67;;;0.93;;
5483;SDS011;2764;48.794;8.326;2023-04-24T03:13:02;5.80;;;1.20;;
5483;SDS011;2764;48.794;8.326;2023-04-24T03:14:06;2.30;;;0.80;;
5483;SDS011;2764;48.794;8.326;2023-04-24T03:15:08;4.30;;;1.30;;
5483;SDS011;2764;48.794;8.326;2023-04-24T03:16:10;9.43;;;1.30;;
5483;SDS011;2764;48.794;8.326;2023-04-24T03:17:12;1.47;;;1.33;;
5483;SDS011;2764;48.794;8.326;2023-04-24T03:18:14;2.40;;;1.60;;
5483;SDS011;2764;48.794;8.326;2023-04-24T03:19:16;1.60;;;1.27;;
5483;SDS011;2764;48.794;8.326;2023-04-24T03:20:19;1.73;;;1.33;;
5483;SDS011;2764;48.794;8.326;2023-04-24T03:21:22;2.10;;;1.50;;
5483;SDS011;2764;48.794;8.326;2023-04-24T03:22:23;2.37;;;2.00;;
5483;SDS011;2764;48.794;8.326;2023-04-24T03:23:25;2.13;;;1.83;;
5483;SDS011;2764;48.794;8.326;2023-04-24T03:24:26;1.83;;;1.73;;
5483;SDS011;2764;48.794;8.326;2023-04-24T03:25:29;2.13;;;1.90;;
5483;SDS011;2764;48.794;8.326;2023-04-24T03:26:31;1.58;;;1.48;;
5483;SDS011;2764;48.794;8.326;2023-04-24T03:27:34;2.22;;;1.60;;
5483;SDS011;2764;48.794;8.326;2023-04-24T03:28:36;2.40;;;1.55;;
5483;SDS011;2764;48.794;8.326;2023-04-24T03:29:39;1.67;;;1.58;;
5483;SDS011;2764;48.794;8.326;2023-04-24T03:30:42;2.03;;;1.70;;
5483;SDS011;2764;48.794;8.326;2023-04-24T03:31:44;2.55;;;1.60;;
5483;SDS011;2764;48.794;8.326;2023-04-24T03:32:46;6.93;;;1.88;;
5483;SDS011;2764;48.794;8.326;2023-04-24T03:33:47;4.32;;;2.20;;
5483;SDS011;2764;48.794;8.326;2023-04-24T03:34:49;4.63;;;2.03;;
5483;SDS011;2764;48.794;8.326;2023-04-24T03:35:51;2.13;;;1.92;;
5483;SDS011;2764;48.794;8.326;2023-04-24T03:36:53;2.00;;;1.73;;
5483;SDS011;2764;48.794;8.326;2023-04-24T03:37:55;2.08;;;1.90;;
5483;SDS011;2764;48.794;8.326;2023-04-24T03:38:56;4.40;;;2.08;;
5483;SDS011;2764;48.794;8.326;2023-04-24T03:39:58;2.33;;;2.20;;
5483;SDS011;2764;48.794;8.326;2023-04-24T03:40:59;4.35;;;2.65;;
5483;SDS011;2764;48.794;8.326;2023-04-24T03:42:02;1.90;;;1.80;;
5483;SDS011;2764;48.794;8.326;2023-04-24T03:43:04;2.67;;;2.30;;
5483;SDS011;2764;48.794;8.326;2023-04-24T03:44:06;2.03;;;1.70;;
5483;SDS011;2764;48.794;8.326;2023-04-24T03:45:08;2.42;;;2.22;;
5483;SDS011;2764;48.794;8.326;2023-04-24T03:46:11;2.38;;;2.00;;
5483;SDS011;2764;48.794;8.326;2023-04-24T03:47:12;3.67;;;1.98;;
5483;SDS011;2764;48.794;8.326;2023-04-24T03:48:14;2.10;;;2.00;;
5483;SDS011;2764;48.794;8.326;2023-04-24T03:49:16;2.10;;;1.95;;
5483;SDS011;2764;48.794;8.326;2023-04-24T03:50:18;2.50;;;2.33;;
5483;SDS011;2764;48.794;8.326;2023-04-24T03:51:22;2.28;;;2.17;;
5483;SDS011;2764;48.794;8.326;2023-04-24T03:52:25;2.45;;;2.35;;
5483;SDS011;2764;48.794;8.326;2023-04-24T03:53:27;2.20;;;2.00;;
5483;SDS011;2764;48.794;8.326;2023-04-24T03:54:29;3.28;;;2.05;;
5483;SDS011;2764;48.794;8.326;2023-04-24T03:55:31;2.25;;;2.15;;
5483;SDS011;2764;48.794;8.326;2023-04-24T03:56:33;2.40;;;2.30;;
5483;SDS011;2764;48.794;8.326;2023-04-24T03:57:35;2.53;;;2.33;;
5483;SDS011;2764;48.794;8.326;2023-04-24T03:58:37;2.45;;;2.33;;
5483;SDS011;2764;48.794;8.326;2023-04-24T03:59:39;3.78;;;2.30;;
5483;SDS011;2764;48.794;8.326;2023-04-24T04:00:41;2.35;;;2.15;;
5483;SDS011;2764;48.794;8.326;2023-04-24T04:01:43;5.50;;;2.47;;
5483;SDS011;2764;48.794;8.326;2023-04-24T04:02:50;2.13;;;2.03;;
5483;SDS011;2764;48.794;8.326;2023-04-24T04:03:53;2.47;;;2.20;;
5483;SDS011;2764;48.794;8.326;2023-04-24T04:04:56;14.30;;;11.65;;
5483;SDS011;2764;48.794;8.326;2023-04-24T04:05:59;7.97;;;3.63;;
5483;SDS011;2764;48.794;8.326;2023-04-24T04:07:01;4.80;;;3.58;;
5483;SDS011;2764;48.794;8.326;2023-04-24T04:08:04;3.20;;;2.80;;
5483;SDS011;2764;48.794;8.326;2023-04-24T04:09:06;2.83;;;2.63;;
5483;SDS011;2764;48.794;8.326;2023-04-24T04:10:08;5.43;;;2.60;;
5483;SDS011;2764;48.794;8.326;2023-04-24T04:11:10;2.60;;;2.50;;
5483;SDS011;2764;48.794;8.326;2023-04-24T04:12:12;4.40;;;2.88;;
5483;SDS011;2764;48.794;8.326;2023-04-24T04:13:14;2.72;;;2.45;;
5483;SDS011;2764;48.794;8.326;2023-04-24T04:14:16;2.90;;;2.70;;
5483;SDS011;2764;48.794;8.326;2023-04-24T04:15:18;2.40;;;2.30;;
5483;SDS011;2764;48.794;8.326;2023-04-24T04:16:20;2.77;;;2.23;;
5483;SDS011;2764;48.794;8.326;2023-04-24T04:17:22;3.00;;;2.90;;
5483;SDS011;2764;48.794;8.326;2023-04-24T04:18:24;2.72;;;2.63;;
5483;SDS011;2764;48.794;8.326;2023-04-24T04:19:26;7.15;;;2.45;;
5483;SDS011;2764;48.794;8.326;2023-04-24T04:20:28;3.83;;;2.97;;
5483;SDS011;2764;48.794;8.326;2023-04-24T04:21:30;2.60;;;2.25;;
5483;SDS011;2764;48.794;8.326;2023-04-24T04:22:32;2.92;;;2.72;;
5483;SDS011;2764;48.794;8.326;2023-04-24T04:23:35;2.92;;;2.80;;
5483;SDS011;2764;48.794;8.326;2023-04-24T04:24:38;2.30;;;2.20;;
5483;SDS011;2764;48.794;8.326;2023-04-24T04:25:42;5.40;;;2.90;;
5483;SDS011;2764;48.794;8.326;2023-04-24T04:26:43;3.63;;;3.42;;
5483;SDS011;2764;48.794;8.326;2023-04-24T04:27:48;5.22;;;3.35;;
5483;SDS011;2764;48.794;8.326;2023-04-24T04:28:50;4.82;;;3.10;;
5483;SDS011;2764;48.794;8.326;2023-04-24T04:29:52;3.95;;;3.65;;
5483;SDS011;2764;48.794;8.326;2023-04-24T04:30:54;4.47;;;2.78;;
5483;SDS011;2764;48.794;8.326;2023-04-24T04:31:56;3.88;;;2.97;;
5483;SDS011;2764;48.794;8.326;2023-04-24T04:32:59;5.97;;;2.80;;
5483;SDS011;2764;48.794;8.326;2023-04-24T04:34:00;4.28;;;3.50;;
5483;SDS011;2764;48.794;8.326;2023-04-24T04:35:03;3.65;;;3.10;;
5483;SDS011;2764;48.794;8.326;2023-04-24T04:36:05;3.60;;;3.30;;
5483;SDS011;2764;48.794;8.326;2023-04-24T04:37:07;6.97;;;3.92;;
5483;SDS011;2764;48.794;8.326;2023-04-24T04:38:09;3.97;;;3.65;;
5483;SDS011;2764;48.794;8.326;2023-04-24T04:39:12;4.35;;;4.00;;
5483;SDS011;2764;48.794;8.326;2023-04-24T04:40:17;3.85;;;3.35;;
5483;SDS011;2764;48.794;8.326;2023-04-24T04:41:18;3.85;;;3.55;;
5483;SDS011;2764;48.794;8.326;2023-04-24T04:42:21;3.70;;;3.50;;
5483;SDS011;2764;48.794;8.326;2023-04-24T04:43:25;5.22;;;3.55;;
5483;SDS011;2764;48.794;8.326;2023-04-24T04:44:28;4.30;;;3.50;;
5483;SDS011;2764;48.794;8.326;2023-04-24T04:45:30;3.80;;;3.50;;
5483;SDS011;2764;48.794;8.326;2023-04-24T04:46:36;3.78;;;3.47;;
5483;SDS011;2764;48.794;8.326;2023-04-24T04:47:40;3.83;;;3.40;;
5483;SDS011;2764;48.794;8.326;2023-04-24T04:48:44;4.68;;;4.15;;
5483;SDS011;2764;48.794;8.326;2023-04-24T04:49:47;3.85;;;3.60;;
5483;SDS011;2764;48.794;8.326;2023-04-24T04:50:49;4.95;;;3.78;;
5483;SDS011;2764;48.794;8.326;2023-04-24T04:51:51;3.97;;;3.72;;
5483;SDS011;2764;48.794;8.326;2023-04-24T04:52:53;5.72;;;3.80;;
5483;SDS011;2764;48.794;8.326;2023-04-24T04:53:56;3.58;;;3.45;;
5483;SDS011;2764;48.794;8.326;2023-04-24T04:54:57;3.75;;;3.50;;
5483;SDS011;2764;48.794;8.326;2023-04-24T04:56:00;6.35;;;3.90;;
5483;SDS011;2764;48.794;8.326;2023-04-24T04:57:02;4.30;;;3.90;;
5483;SDS011;2764;48.794;8.326;2023-04-24T04:58:04;3.80;;;3.55;;
5483;SDS011;2764;48.794;8.326;2023-04-24T04:59:07;3.75;;;3.20;;
5483;SDS011;2764;48.794;8.326;2023-04-24T05:00:09;4.40;;;4.00;;
5483;SDS011;2764;48.794;8.326;2023-04-24T05:01:13;3.78;;;3.45;;
5483;SDS011;2764;48.794;8.326;2023-04-24T05:02:15;3.30;;;3.20;;
5483;SDS011;2764;48.794;8.326;2023-04-24T05:03:17;4.20;;;3.80;;
5483;SDS011;2764;48.794;8.326;2023-04-24T05:04:22;3.40;;;3.20;;
5483;SDS011;2764;48.794;8.326;2023-04-24T05:05:24;4.50;;;3.70;;
5483;SDS011;2764;48.794;8.326;2023-04-24T05:06:25;5.07;;;3.67;;
5483;SDS011;2764;48.794;8.326;2023-04-24T05:07:27;4.72;;;3.65;;
5483;SDS011;2764;48.794;8.326;2023-04-24T05:08:29;4.38;;;3.75;;
5483;SDS011;2764;48.794;8.326;2023-04-24T05:09:31;4.32;;;3.58;;
5483;SDS011;2764;48.794;8.326;2023-04-24T05:10:33;3.75;;;3.45;;
5483;SDS011;2764;48.794;8.326;2023-04-24T05:11:35;3.67;;;3.33;;
5483;SDS011;2764;48.794;8.326;2023-04-24T05:12:37;5.60;;;3.28;;
5483;SDS011;2764;48.794;8.326;2023-04-24T05:13:40;3.33;;;3.13;;
5483;SDS011;2764;48.794;8.326;2023-04-24T05:14:41;3.70;;;3.40;;
5483;SDS011;2764;48.794;8.326;2023-04-24T05:15:45;3.58;;;3.22;;
5483;SDS011;2764;48.794;8.326;2023-04-24T05:16:48;3.92;;;3.63;;
5483;SDS011;2764;48.794;8.326;2023-04-24T05:17:49;3.50;;;3.40;;
5483;SDS011;2764;48.794;8.326;2023-04-24T05:18:51;3.22;;;3.03;;
5483;SDS011;2764;48.794;8.326;2023-04-24T05:19:53;5.85;;;3.45;;
5483;SDS011;2764;48.794;8.326;2023-04-24T05:20:55;3.65;;;3.45;;
5483;SDS011;2764;48.794;8.326;2023-04-24T05:21:57;3.90;;;3.25;;
5483;SDS011;2764;48.794;8.326;2023-04-24T05:22:58;2.83;;;2.67;;
5483;SDS011;2764;48.794;8.326;2023-04-24T05:24:00;3.03;;;2.80;;
5483;SDS011;2764;48.794;8.326;2023-04-24T05:25:02;3.63;;;3.33;;
5483;SDS011;2764;48.794;8.326;2023-04-24T05:26:05;3.22;;;3.13;;
5483;SDS011;2764;48.794;8.326;2023-04-24T05:27:08;3.95;;;3.55;;
5483;SDS011;2764;48.794;8.326;2023-04-24T05:28:10;4.72;;;3.78;;
5483;SDS011;2764;48.794;8.326;2023-04-24T05:29:11;3.15;;;3.05;;
5483;SDS011;2764;48.794;8.326;2023-04-24T05:30:13;3.55;;;3.33;;
5483;SDS011;2764;48.794;8.326;2023-04-24T05:31:15;3.30;;;3.05;;
5483;SDS011;2764;48.794;8.326;2023-04-24T05:32:20;5.82;;;4.05;;
5483;SDS011;2764;48.794;8.326;2023-04-24T05:33:23;2.97;;;2.78;;
5483;SDS011;2764;48.794;8.326;2023-04-24T05:34:24;3.60;;;3.30;;
5483;SDS011;2764;48.794;8.326;2023-04-24T05:35:27;3.78;;;3.58;;
5483;SDS011;2764;48.794;8.326;2023-04-24T05:36:29;5.10;;;3.70;;
5483;SDS011;2764;48.794;8.326;2023-04-24T05:37:33;7.65;;;2.80;;
5483;SDS011;2764;48.794;8.326;2023-04-24T05:38:43;4.03;;;3.70;;
5483;SDS011;2764;48.794;8.326;2023-04-24T05:39:45;3.80;;;3.25;;
5483;SDS011;2764;48.794;8.326;2023-04-24T05:40:46;3.47;;;2.80;;
5483;SDS011;2764;48.794;8.326;2023-04-24T05:41:51;2.78;;;2.67;;
5483;SDS011;2764;48.794;8.326;2023-04-24T05:42:55;3.07;;;2.77;;
5483;SDS011;2764;48.794;8.326;2023-04-24T05:43:57;7.68;;;3.17;;
5483;SDS011;2764;48.794;8.326;2023-04-24T05:44:59;2.83;;;2.65;;
5483;SDS011;2764;48.794;8.326;2023-04-24T05:46:01;6.97;;;3.13;;
5483;SDS011;2764;48.794;8.326;2023-04-24T05:47:03;3.03;;;2.90;;
5483;SDS011;2764;48.794;8.326;2023-04-24T05:48:05;3.22;;;2.90;;
5483;SDS011;2764;48.794;8.326;2023-04-24T05:49:08;3.50;;;3.30;;
5483;SDS011;2764;48.794;8.326;2023-04-24T05:50:10;3.72;;;3.42;;
5483;SDS011;2764;48.794;8.326;2023-04-24T05:51:12;3.53;;;3.33;;
5483;SDS011;2764;48.794;8.326;2023-04-24T05:52:14;4.70;;;3.10;;
5483;SDS011;2764;48.794;8.326;2023-04-24T05:53:15;4.30;;;3.63;;
5483;SDS011;2764;48.794;8.326;2023-04-24T05:54:18;3.72;;;3.33;;
5483;SDS011;2764;48.794;8.326;2023-04-24T05:55:20;4.00;;;3.15;;
5483;SDS011;2764;48.794;8.326;2023-04-24T05:56:22;4.07;;;3.17;;
5483;SDS011;2764;48.794;8.326;2023-04-24T05:57:26;5.97;;;3.80;;
5483;SDS011;2764;48.794;8.326;2023-04-24T05:58:28;3.78;;;3.35;;
5483;SDS011;2764;48.794;8.326;2023-04-24T05:59:30;5.95;;;2.78;;
5483;SDS011;2764;48.794;8.326;2023-04-24T06:00:34;3.58;;;3.30;;
5483;SDS011;2764;48.794;8.326;2023-04-24T06:01:36;2.83;;;2.63;;
5483;SDS011;2764;48.794;8.326;2023-04-24T06:02:39;2.53;;;2.42;;
5483;SDS011;2764;48.794;8.326;2023-04-24T06:03:41;3.07;;;2.97;;
5483;SDS011;2764;48.794;8.326;2023-04-24T06:04:43;3.17;;;3.07;;
5483;SDS011;2764;48.794;8.326;2023-04-24T06:05:46;5.93;;;3.43;;
5483;SDS011;2764;48.794;8.326;2023-04-24T06:06:48;4.93;;;3.70;;
5483;SDS011;2764;48.794;8.326;2023-04-24T06:07:53;3.60;;;3.30;;
5483;SDS011;2764;48.794;8.326;2023-04-24T06:08:55;3.78;;;3.20;;
5483;SDS011;2764;48.794;8.326;2023-04-24T06:09:56;3.60;;;3.30;;
5483;SDS011;2764;48.794;8.326;2023-04-24T06:10:58;3.17;;;2.87;;
5483;SDS011;2764;48.794;8.326;2023-04-24T06:12:05;3.43;;;3.13;;
5483;SDS011;2764;48.794;8.326;2023-04-24T06:13:09;3.80;;;3.10;;
5483;SDS011;2764;48.794;8.326;2023-04-24T06:14:13;4.73;;;4.33;;
5483;SDS011;2764;48.794;8.326;2023-04-24T06:15:15;4.07;;;3.60;;
5483;SDS011;2764;48.794;8.326;2023-04-24T06:16:16;3.50;;;2.73;;
5483;SDS011;2764;48.794;8.326;2023-04-24T06:17:18;4.05;;;2.75;;
5483;SDS011;2764;48.794;8.326;2023-04-24T06:18:21;5.90;;;3.37;;
5483;SDS011;2764;48.794;8.326;2023-04-24T06:19:23;7.10;;;3.15;;
5483;SDS011;2764;48.794;8.326;2023-04-24T06:20:25;5.63;;;2.90;;
5483;SDS011;2764;48.794;8.326;2023-04-24T06:21:31;2.90;;;2.43;;
5483;SDS011;2764;48.794;8.326;2023-04-24T06:22:33;6.15;;;2.70;;
5483;SDS011;2764;48.794;8.326;2023-04-24T06:23:35;3.23;;;2.77;;
5483;SDS011;2764;48.794;8.326;2023-04-24T06:24:39;3.57;;;3.10;;
5483;SDS011;2764;48.794;8.326;2023-04-24T06:25:43;2.77;;;2.50;;
5483;SDS011;2764;48.794;8.326;2023-04-24T06:26:44;4.50;;;2.90;;
5483;SDS011;2764;48.794;8.326;2023-04-24T06:27:47;2.88;;;2.60;;